sensor_id;sensor_type;location;lat;lon;timestamp;pressure;altitude;pressure_sealevel;temperature;humidity
61710;BME280;47633;51.494;5.386;2023-02-22T00:00:22;101450.94;;;19.17;41.16
61710;BME280;47633;51.494;5.386;2023-02-22T00:02:54;101447.56;;;19.15;41.20
61710;BME280;47633;51.494;5.386;2023-02-22T00:05:25;101453.81;;;19.14;41.21
61710;BME280;47633;51.494;5.386;2023-02-22T00:07:50;101443.47;;;19.11;41.10
61710;BME280;47633;51.494;5.386;2023-02-22T00:10:16;101452.94;;;19.13;41.12
61710;BME280;47633;51.494;5.386;2023-02-22T00:12:46;101450.44;;;19.12;41.25
61710;BME280;47633;51.494;5.386;2023-02-22T00:15:14;101446.94;;;19.11;40.95
61710;BME280;47633;51.494;5.386;2023-02-22T00:17:40;101433.97;;;19.08;40.92
61710;BME280;47633;51.494;5.386;2023-02-22T00:20:06;101432.16;;;19.09;41.12
61710;BME280;47633;51.494;5.386;2023-02-22T00:22:32;101436.72;;;19.07;41.14
61710;BME280;47633;51.494;5.386;2023-02-22T00:24:58;101437.56;;;19.07;40.91
61710;BME280;47633;51.494;5.386;2023-02-22T00:27:23;101434.31;;;19.03;40.95
61710;BME280;47633;51.494;5.386;2023-02-22T00:29:48;101432.50;;;19.04;41.04
61710;BME280;47633;51.494;5.386;2023-02-22T00:32:14;101434.22;;;19.05;41.08
61710;BME280;47633;51.494;5.386;2023-02-22T00:34:40;101430.13;;;19.01;40.90
61710;BME280;47633;51.494;5.386;2023-02-22T00:37:05;101429.16;;;19.02;40.94
61710;BME280;47633;51.494;5.386;2023-02-22T00:39:31;101431.78;;;19.02;40.81
61710;BME280;47633;51.494;5.386;2023-02-22T00:41:56;101428.31;;;19.01;41.07
61710;BME280;47633;51.494;5.386;2023-02-22T00:44:22;101426.03;;;18.97;40.98
61710;BME280;47633;51.494;5.386;2023-02-22T00:46:47;101430.47;;;18.96;41.06
61710;BME280;47633;51.494;5.386;2023-02-22T00:49:14;101434.78;;;18.97;40.75
61710;BME280;47633;51.494;5.386;2023-02-22T00:51:40;101423.63;;;18.94;40.98
61710;BME280;47633;51.494;5.386;2023-02-22T00:54:06;101422.66;;;18.95;40.77
61710;BME280;47633;51.494;5.386;2023-02-22T00:56:33;101426.38;;;18.92;40.93
61710;BME280;47633;51.494;5.386;2023-02-22T00:58:59;101419.41;;;18.91;40.76
61710;BME280;47633;51.494;5.386;2023-02-22T01:01:25;101421.91;;;18.93;40.81
61710;BME280;47633;51.494;5.386;2023-02-22T01:03:51;101425.41;;;18.93;40.89
61710;BME280;47633;51.494;5.386;2023-02-22T01:06:16;101419.50;;;18.90;40.75
61710;BME280;47633;51.494;5.386;2023-02-22T01:08:46;101406.00;;;18.81;40.98
61710;BME280;47633;51.494;5.386;2023-02-22T01:11:12;101414.22;;;18.90;40.66
61710;BME280;47633;51.494;5.386;2023-02-22T01:13:39;101397.78;;;18.86;40.85
61710;BME280;47633;51.494;5.386;2023-02-22T01:16:05;101404.75;;;18.87;40.70
61710;BME280;47633;51.494;5.386;2023-02-22T01:18:35;101399.69;;;18.84;40.85
61710;BME280;47633;51.494;5.386;2023-02-22T01:21:02;101405.81;;;18.84;40.60
61710;BME280;47633;51.494;5.386;2023-02-22T01:23:28;101396.19;;;18.83;41.01
61710;BME280;47633;51.494;5.386;2023-02-22T01:25:53;101401.41;;;18.85;40.68
61710;BME280;47633;51.494;5.386;2023-02-22T01:28:18;101391.03;;;18.82;40.81
61710;BME280;47633;51.494;5.386;2023-02-22T01:30:43;101392.81;;;18.81;40.58
61710;BME280;47633;51.494;5.386;2023-02-22T01:33:09;101381.53;;;18.79;40.61
61710;BME280;47633;51.494;5.386;2023-02-22T01:35:37;101395.44;;;18.81;40.83
61710;BME280;47633;51.494;5.386;2023-02-22T01:38:07;101393.78;;;18.80;40.73
61710;BME280;47633;51.494;5.386;2023-02-22T01:40:36;101393.91;;;18.79;40.75
61710;BME280;47633;51.494;5.386;2023-02-22T01:43:14;101385.34;;;18.75;40.69
61710;BME280;47633;51.494;5.386;2023-02-22T01:45:54;101381.75;;;18.76;40.63
61710;BME280;47633;51.494;5.386;2023-02-22T01:48:35;101381.75;;;18.76;40.70
61710;BME280;47633;51.494;5.386;2023-02-22T01:53:52;101370.47;;;18.74;40.74
61710;BME280;47633;51.494;5.386;2023-02-22T01:56:20;101376.59;;;18.75;40.67
61710;BME280;47633;51.494;5.386;2023-02-22T01:58:52;101368.91;;;18.72;40.67
61710;BME280;47633;51.494;5.386;2023-02-22T02:01:20;101362.91;;;18.70;40.58
61710;BME280;47633;51.494;5.386;2023-02-22T02:03:47;101363.63;;;18.72;40.64
61710;BME280;47633;51.494;5.386;2023-02-22T02:06:15;101357.63;;;18.70;40.64
61710;BME280;47633;51.494;5.386;2023-02-22T02:11:07;101354.28;;;18.67;40.71
61710;BME280;47633;51.494;5.386;2023-02-22T02:13:34;101349.00;;;18.67;40.76
61710;BME280;47633;51.494;5.386;2023-02-22T02:15:59;101348.84;;;18.69;40.86
61710;BME280;47633;51.494;5.386;2023-02-22T02:18:26;101346.47;;;18.66;40.83
61710;BME280;47633;51.494;5.386;2023-02-22T02:24:01;101345.38;;;18.68;40.40
61710;BME280;47633;51.494;5.386;2023-02-22T02:35:10;101329.75;;;18.65;40.87
61710;BME280;47633;51.494;5.386;2023-02-22T02:37:56;101331.34;;;18.68;40.76
61710;BME280;47633;51.494;5.386;2023-02-22T02:40:43;101334.81;;;18.68;40.67
61710;BME280;47633;51.494;5.386;2023-02-22T02:43:18;101333.38;;;18.64;40.52
61710;BME280;47633;51.494;5.386;2023-02-22T02:48:58;101324.00;;;18.60;40.81
61710;BME280;47633;51.494;5.386;2023-02-22T02:51:28;101335.28;;;18.62;40.60
61710;BME280;47633;51.494;5.386;2023-02-22T02:53:56;101333.50;;;18.63;40.58
61710;BME280;47633;51.494;5.386;2023-02-22T02:56:21;101332.50;;;18.64;40.57
61710;BME280;47633;51.494;5.386;2023-02-22T02:58:52;101329.28;;;18.60;40.82
61710;BME280;47633;51.494;5.386;2023-02-22T03:17:26;101305.03;;;18.55;40.43
61710;BME280;47633;51.494;5.386;2023-02-22T03:20:02;101307.69;;;18.55;40.46
61710;BME280;47633;51.494;5.386;2023-02-22T03:22:32;101303.22;;;18.56;40.63
61710;BME280;47633;51.494;5.386;2023-02-22T03:25:07;101293.84;;;18.52;40.71
61710;BME280;47633;51.494;5.386;2023-02-22T03:27:49;101295.53;;;18.53;40.66
61710;BME280;47633;51.494;5.386;2023-02-22T03:30:40;101285.22;;;18.49;40.87
61710;BME280;47633;51.494;5.386;2023-02-22T03:33:13;101279.09;;;18.49;40.67
61710;BME280;47633;51.494;5.386;2023-02-22T03:35:49;101280.91;;;18.48;40.70
61710;BME280;47633;51.494;5.386;2023-02-22T03:38:23;101269.38;;;18.49;40.56
61710;BME280;47633;51.494;5.386;2023-02-22T03:40:53;101273.72;;;18.51;40.68
61710;BME280;47633;51.494;5.386;2023-02-22T03:43:28;101268.66;;;18.47;40.63
61710;BME280;47633;51.494;5.386;2023-02-22T03:45:55;101260.63;;;18.49;40.61
61710;BME280;47633;51.494;5.386;2023-02-22T03:48:42;101268.53;;;18.49;40.56
61710;BME280;47633;51.494;5.386;2023-02-22T03:51:11;101260.75;;;18.47;40.81
61710;BME280;47633;51.494;5.386;2023-02-22T03:53:39;101264.09;;;18.49;40.57
61710;BME280;47633;51.494;5.386;2023-02-22T03:56:06;101252.94;;;18.46;40.45
61710;BME280;47633;51.494;5.386;2023-02-22T03:58:35;101247.66;;;18.46;40.46
61710;BME280;47633;51.494;5.386;2023-02-22T04:01:01;101244.91;;;18.47;40.59
61710;BME280;47633;51.494;5.386;2023-02-22T04:03:27;101238.06;;;18.45;40.56
61710;BME280;47633;51.494;5.386;2023-02-22T04:05:52;101232.66;;;18.46;40.38
61710;BME280;47633;51.494;5.386;2023-02-22T04:08:18;101226.78;;;18.43;40.54
61710;BME280;47633;51.494;5.386;2023-02-22T04:10:43;101231.72;;;18.47;40.48
61710;BME280;47633;51.494;5.386;2023-02-22T04:13:09;101234.47;;;18.46;40.65
61710;BME280;47633;51.494;5.386;2023-02-22T04:15:35;101236.28;;;18.45;40.45
61710;BME280;47633;51.494;5.386;2023-02-22T04:18:00;101225.94;;;18.42;40.55
61710;BME280;47633;51.494;5.386;2023-02-22T04:20:26;101225.94;;;18.42;40.59
61710;BME280;47633;51.494;5.386;2023-02-22T04:22:52;101217.19;;;18.42;40.47
61710;BME280;47633;51.494;5.386;2023-02-22T04:25:18;101220.56;;;18.44;40.43
61710;BME280;47633;51.494;5.386;2023-02-22T04:27:43;101206.72;;;18.40;40.67
61710;BME280;47633;51.494;5.386;2023-02-22T04:30:10;101220.78;;;18.41;40.69
61710;BME280;47633;51.494;5.386;2023-02-22T04:32:35;101204.31;;;18.37;40.70
61710;BME280;47633;51.494;5.386;2023-02-22T04:35:01;101219.81;;;18.42;40.62
61710;BME280;47633;51.494;5.386;2023-02-22T04:37:26;101220.78;;;18.41;40.72
61710;BME280;47633;51.494;5.386;2023-02-22T04:39:52;101225.94;;;18.42;40.67
61710;BME280;47633;51.494;5.386;2023-02-22T04:42:17;101229.41;;;18.43;40.34
61710;BME280;47633;51.494;5.386;2023-02-22T04:44:42;101226.91;;;18.41;40.44
61710;BME280;47633;51.494;5.386;2023-02-22T04:47:07;101225.09;;;18.42;40.46
61710;BME280;47633;51.494;5.386;2023-02-22T04:49:33;101216.34;;;18.41;40.39
61710;BME280;47633;51.494;5.386;2023-02-22T04:51:58;101231.47;;;18.39;40.89
61710;BME280;47633;51.494;5.386;2023-02-22T04:54:23;101226.06;;;18.41;40.44
61710;BME280;47633;51.494;5.386;2023-02-22T04:56:48;101211.19;;;18.40;40.48
61710;BME280;47633;51.494;5.386;2023-02-22T04:59:14;101205.31;;;18.36;40.32
61710;BME280;47633;51.494;5.386;2023-02-22T05:01:39;101213.09;;;18.38;40.37
61710;BME280;47633;51.494;5.386;2023-02-22T05:04:05;101206.84;;;18.39;40.36
61710;BME280;47633;51.494;5.386;2023-02-22T05:06:31;101200.97;;;18.35;40.18
61710;BME280;47633;51.494;5.386;2023-02-22T05:08:56;101197.50;;;18.35;40.45
61710;BME280;47633;51.494;5.386;2023-02-22T05:11:22;101191.41;;;18.34;40.29
61710;BME280;47633;51.494;5.386;2023-02-22T05:13:47;101196.78;;;18.33;40.45
61710;BME280;47633;51.494;5.386;2023-02-22T05:16:13;101179.28;;;18.31;40.22
61710;BME280;47633;51.494;5.386;2023-02-22T05:18:39;101179.16;;;18.33;40.59
61710;BME280;47633;51.494;5.386;2023-02-22T05:21:04;101181.09;;;18.31;40.61
61710;BME280;47633;51.494;5.386;2023-02-22T05:23:31;101180.09;;;18.32;40.45
61710;BME280;47633;51.494;5.386;2023-02-22T05:25:56;101176.63;;;18.31;40.62
61710;BME280;47633;51.494;5.386;2023-02-22T05:28:22;101170.53;;;18.31;40.59
61710;BME280;47633;51.494;5.386;2023-02-22T05:30:47;101168.84;;;18.30;40.58
61710;BME280;47633;51.494;5.386;2023-02-22T05:33:13;101170.66;;;18.29;40.44
61710;BME280;47633;51.494;5.386;2023-02-22T05:35:38;101168.72;;;18.31;40.47
61710;BME280;47633;51.494;5.386;2023-02-22T05:38:04;101163.56;;;18.30;40.40
61710;BME280;47633;51.494;5.386;2023-02-22T05:40:30;101159.22;;;18.29;40.33
61710;BME280;47633;51.494;5.386;2023-02-22T05:42:56;101167.13;;;18.29;40.53
61710;BME280;47633;51.494;5.386;2023-02-22T05:45:23;101155.88;;;18.27;40.76
61710;BME280;47633;51.494;5.386;2023-02-22T05:47:49;101165.47;;;18.28;40.66
61710;BME280;47633;51.494;5.386;2023-02-22T05:50:16;101155.75;;;18.28;40.60
61710;BME280;47633;51.494;5.386;2023-02-22T05:52:41;101153.34;;;18.25;40.43
61710;BME280;47633;51.494;5.386;2023-02-22T05:55:08;101153.25;;;18.27;40.59
61710;BME280;47633;51.494;5.386;2023-02-22T05:57:34;101148.19;;;18.24;40.68
61710;BME280;47633;51.494;5.386;2023-02-22T06:00:00;101143.75;;;18.24;40.98
61710;BME280;47633;51.494;5.386;2023-02-22T06:02:26;101140.28;;;18.24;41.01
61710;BME280;47633;51.494;5.386;2023-02-22T06:04:51;101129.97;;;18.21;41.05
61710;BME280;47633;51.494;5.386;2023-02-22T06:07:16;101128.28;;;18.20;41.42
61710;BME280;47633;51.494;5.386;2023-02-22T06:09:41;101118.47;;;18.22;41.46
61710;BME280;47633;51.494;5.386;2023-02-22T06:12:07;101108.63;;;18.24;41.52
61710;BME280;47633;51.494;5.386;2023-02-22T06:14:33;101121.34;;;18.30;41.41
61710;BME280;47633;51.494;5.386;2023-02-22T06:16:59;101116.66;;;18.34;41.32
61710;BME280;47633;51.494;5.386;2023-02-22T06:19:25;101107.78;;;18.35;41.47
61710;BME280;47633;51.494;5.386;2023-02-22T06:21:56;101109.34;;;18.37;41.39
61710;BME280;47633;51.494;5.386;2023-02-22T06:24:22;101103.59;;;18.43;41.22
61710;BME280;47633;51.494;5.386;2023-02-22T06:26:55;101096.41;;;18.45;41.45
61710;BME280;47633;51.494;5.386;2023-02-22T06:29:22;101097.00;;;18.49;41.04
61710;BME280;47633;51.494;5.386;2023-02-22T06:31:48;101095.19;;;18.49;41.21
61710;BME280;47633;51.494;5.386;2023-02-22T06:34:13;101100.09;;;18.54;41.04
61710;BME280;47633;51.494;5.386;2023-02-22T06:36:38;101096.41;;;18.57;41.06
61710;BME280;47633;51.494;5.386;2023-02-22T06:39:03;101091.25;;;18.55;41.09
61710;BME280;47633;51.494;5.386;2023-02-22T06:41:29;101084.84;;;18.58;41.13
61710;BME280;47633;51.494;5.386;2023-02-22T06:43:54;101098.78;;;18.60;41.19
61710;BME280;47633;51.494;5.386;2023-02-22T06:46:19;101092.53;;;18.61;41.11
61710;BME280;47633;51.494;5.386;2023-02-22T06:48:45;101104.41;;;18.66;41.15
61710;BME280;47633;51.494;5.386;2023-02-22T06:51:11;101085.72;;;18.58;40.94
61710;BME280;47633;51.494;5.386;2023-02-22T06:53:36;101105.97;;;18.69;41.14
61710;BME280;47633;51.494;5.386;2023-02-22T06:56:02;101110.28;;;18.70;41.00
61710;BME280;47633;51.494;5.386;2023-02-22T06:58:27;101112.09;;;18.70;40.93
61710;BME280;47633;51.494;5.386;2023-02-22T07:00:53;101104.19;;;18.70;40.87
61710;BME280;47633;51.494;5.386;2023-02-22T07:03:18;101107.66;;;18.70;41.09
61710;BME280;47633;51.494;5.386;2023-02-22T07:05:44;101105.72;;;18.72;40.80
61710;BME280;47633;51.494;5.386;2023-02-22T07:08:10;101110.03;;;18.73;40.96
61710;BME280;47633;51.494;5.386;2023-02-22T07:10:36;101115.09;;;18.76;40.85
61710;BME280;47633;51.494;5.386;2023-02-22T07:13:03;101118.69;;;18.75;40.88
61710;BME280;47633;51.494;5.386;2023-02-22T07:15:31;101123.25;;;18.73;40.90
61710;BME280;47633;51.494;5.386;2023-02-22T07:17:57;101121.31;;;18.75;40.87
61710;BME280;47633;51.494;5.386;2023-02-22T07:20:24;101114.50;;;18.73;40.77
61710;BME280;47633;51.494;5.386;2023-02-22T07:22:50;101116.91;;;18.76;40.69
61710;BME280;47633;51.494;5.386;2023-02-22T07:25:16;101128.28;;;18.76;40.87
61710;BME280;47633;51.494;5.386;2023-02-22T07:27:41;101116.41;;;18.71;41.12
61710;BME280;47633;51.494;5.386;2023-02-22T07:30:15;101120.59;;;18.73;40.90
61710;BME280;47633;51.494;5.386;2023-02-22T07:32:41;101120.59;;;18.73;40.73
61710;BME280;47633;51.494;5.386;2023-02-22T07:35:14;101135.38;;;18.76;40.85
61710;BME280;47633;51.494;5.386;2023-02-22T07:37:39;101141.50;;;18.76;40.66
61710;BME280;47633;51.494;5.386;2023-02-22T07:40:04;101136.31;;;18.75;40.78
61710;BME280;47633;51.494;5.386;2023-02-22T07:42:30;101134.41;;;18.77;40.79
61710;BME280;47633;51.494;5.386;2023-02-22T07:44:57;101135.25;;;18.77;40.74
61710;BME280;47633;51.494;5.386;2023-02-22T07:47:22;101136.31;;;18.75;41.08
61710;BME280;47633;51.494;5.386;2023-02-22T07:49:47;101123.84;;;18.65;40.89
61710;BME280;47633;51.494;5.386;2023-02-22T07:52:12;101134.63;;;18.74;41.04
61710;BME280;47633;51.494;5.386;2023-02-22T07:54:38;101144.00;;;18.78;41.01
61710;BME280;47633;51.494;5.386;2023-02-22T07:57:03;101146.78;;;18.76;41.07
61710;BME280;47633;51.494;5.386;2023-02-22T07:59:29;101145.94;;;18.76;41.28
61710;BME280;47633;51.494;5.386;2023-02-22T08:01:54;101153.84;;;18.76;41.29
61710;BME280;47633;51.494;5.386;2023-02-22T08:04:19;101147.72;;;18.75;41.37
61710;BME280;47633;51.494;5.386;2023-02-22T08:06:45;101149.41;;;18.76;41.63
61710;BME280;47633;51.494;5.386;2023-02-22T08:09:10;101135.50;;;18.74;41.59
61710;BME280;47633;51.494;5.386;2023-02-22T08:11:36;101128.66;;;18.72;41.83
61710;BME280;47633;51.494;5.386;2023-02-22T08:14:01;101124.69;;;18.77;41.64
61710;BME280;47633;51.494;5.386;2023-02-22T08:16:26;101122.28;;;18.74;41.75
61710;BME280;47633;51.494;5.386;2023-02-22T08:18:51;101125.53;;;18.78;41.76
61710;BME280;47633;51.494;5.386;2023-02-22T08:21:17;101120.38;;;18.76;41.87
61710;BME280;47633;51.494;5.386;2023-02-22T08:23:42;101116.66;;;18.79;41.79
61710;BME280;47633;51.494;5.386;2023-02-22T08:26:09;101114.25;;;18.76;41.84
61710;BME280;47633;51.494;5.386;2023-02-22T08:28:39;101120.00;;;18.81;41.71
61710;BME280;47633;51.494;5.386;2023-02-22T08:31:04;101120.72;;;18.83;41.88
61710;BME280;47633;51.494;5.386;2023-02-22T08:33:31;101129.50;;;18.83;42.04
61710;BME280;47633;51.494;5.386;2023-02-22T08:35:57;101122.63;;;18.81;42.01
61710;BME280;47633;51.494;5.386;2023-02-22T08:38:25;101120.63;;;18.84;42.21
61710;BME280;47633;51.494;5.386;2023-02-22T08:40:51;101126.84;;;18.83;42.30
61710;BME280;47633;51.494;5.386;2023-02-22T08:43:18;101134.53;;;18.87;42.16
61710;BME280;47633;51.494;5.386;2023-02-22T08:45:44;101122.06;;;18.89;42.19
61710;BME280;47633;51.494;5.386;2023-02-22T08:48:10;101117.72;;;18.88;42.52
61710;BME280;47633;51.494;5.386;2023-02-22T08:50:35;101126.25;;;18.91;42.59
61710;BME280;47633;51.494;5.386;2023-02-22T08:53:04;101117.72;;;18.88;42.66
61710;BME280;47633;51.494;5.386;2023-02-22T08:55:32;101124.72;;;18.89;42.72
61710;BME280;47633;51.494;5.386;2023-02-22T08:57:59;101126.50;;;18.88;42.92
61710;BME280;47633;51.494;5.386;2023-02-22T09:00:25;101120.84;;;18.93;42.59
61710;BME280;47633;51.494;5.386;2023-02-22T09:02:54;101111.13;;;18.93;42.81
61710;BME280;47633;51.494;5.386;2023-02-22T09:05:20;101111.13;;;18.93;42.81
61710;BME280;47633;51.494;5.386;2023-02-22T09:07:45;101110.03;;;18.96;42.58
61710;BME280;47633;51.494;5.386;2023-02-22T09:10:16;101094.44;;;18.93;42.79
61710;BME280;47633;51.494;5.386;2023-02-22T09:12:43;101098.63;;;18.95;42.77
61710;BME280;47633;51.494;5.386;2023-02-22T09:15:09;101090.00;;;18.93;42.78
61710;BME280;47633;51.494;5.386;2023-02-22T09:17:35;101091.41;;;18.97;42.72
61710;BME280;47633;51.494;5.386;2023-02-22T09:20:03;101079.31;;;18.95;42.77
61710;BME280;47633;51.494;5.386;2023-02-22T09:22:28;101085.06;;;19.00;42.96
61710;BME280;47633;51.494;5.386;2023-02-22T09:24:53;101077.25;;;18.98;42.81
61710;BME280;47633;51.494;5.386;2023-02-22T09:27:19;101083.25;;;19.00;42.81
61710;BME280;47633;51.494;5.386;2023-02-22T09:29:47;101080.72;;;18.99;42.71
61710;BME280;47633;51.494;5.386;2023-02-22T09:32:12;101084.69;;;19.05;42.93
61710;BME280;47633;51.494;5.386;2023-02-22T09:34:37;101076.88;;;19.03;42.64
61710;BME280;47633;51.494;5.386;2023-02-22T09:37:10;101078.53;;;19.04;42.66
61710;BME280;47633;51.494;5.386;2023-02-22T09:39:35;101076.03;;;19.02;42.69
61710;BME280;47633;51.494;5.386;2023-02-22T09:42:12;101076.75;;;19.05;42.71
61710;BME280;47633;51.494;5.386;2023-02-22T09:44:46;101075.06;;;19.03;42.66
61710;BME280;47633;51.494;5.386;2023-02-22T09:47:18;101077.84;;;19.02;42.85
61710;BME280;47633;51.494;5.386;2023-02-22T09:49:55;101083.00;;;19.03;42.79
61710;BME280;47633;51.494;5.386;2023-02-22T09:52:25;101078.53;;;19.04;42.70
61710;BME280;47633;51.494;5.386;2023-02-22T09:55:19;101081.31;;;19.02;42.81
61710;BME280;47633;51.494;5.386;2023-02-22T09:57:55;101069.91;;;19.02;42.55
61710;BME280;47633;51.494;5.386;2023-02-22T10:00:34;101074.00;;;19.06;42.56
61710;BME280;47633;51.494;5.386;2023-02-22T10:08:23;101073.38;;;19.14;42.33
61710;BME280;47633;51.494;5.386;2023-02-22T10:11:03;101073.97;;;19.17;42.57
61710;BME280;47633;51.494;5.386;2023-02-22T10:24:23;101067.44;;;19.21;42.37
61710;BME280;47633;51.494;5.386;2023-02-22T10:26:52;101051.25;;;19.15;42.40
61710;BME280;47633;51.494;5.386;2023-02-22T10:29:36;101060.75;;;19.17;42.66
61710;BME280;47633;51.494;5.386;2023-02-22T10:32:05;101066.03;;;19.17;42.42
61710;BME280;47633;51.494;5.386;2023-02-22T10:34:37;101069.63;;;19.16;42.72
61710;BME280;47633;51.494;5.386;2023-02-22T10:37:28;101066.84;;;19.18;42.51
61710;BME280;47633;51.494;5.386;2023-02-22T10:40:13;101074.28;;;19.24;42.42
61710;BME280;47633;51.494;5.386;2023-02-22T10:42:42;101067.31;;;19.23;42.46
61710;BME280;47633;51.494;5.386;2023-02-22T10:47:42;101058.81;;;19.19;42.43
61710;BME280;47633;51.494;5.386;2023-02-22T10:50:12;101063.72;;;19.24;42.66
61710;BME280;47633;51.494;5.386;2023-02-22T10:52:39;101070.75;;;19.35;42.42
61710;BME280;47633;51.494;5.386;2023-02-22T10:55:04;101060.06;;;19.36;42.50
61710;BME280;47633;51.494;5.386;2023-02-22T10:57:36;101065.84;;;19.30;42.32
61710;BME280;47633;51.494;5.386;2023-02-22T11:00:27;101063.66;;;19.35;42.54
61710;BME280;47633;51.494;5.386;2023-02-22T11:03:21;101064.97;;;19.41;42.04
61710;BME280;47633;51.494;5.386;2023-02-22T11:05:48;101060.38;;;19.43;42.09
61710;BME280;47633;51.494;5.386;2023-02-22T11:10:51;101056.06;;;19.42;41.83
61710;BME280;47633;51.494;5.386;2023-02-22T11:13:30;101056.19;;;19.40;41.84
61710;BME280;47633;51.494;5.386;2023-02-22T11:16:00;101059.69;;;19.41;41.85
61710;BME280;47633;51.494;5.386;2023-02-22T11:18:33;101052.00;;;19.38;41.62
61710;BME280;47633;51.494;5.386;2023-02-22T11:21:08;101050.56;;;19.34;41.61
61710;BME280;47633;51.494;5.386;2023-02-22T11:23:39;101054.91;;;19.35;41.80
61710;BME280;47633;51.494;5.386;2023-02-22T11:26:09;101054.22;;;19.33;41.67
61710;BME280;47633;51.494;5.386;2023-02-22T11:28:42;101049.88;;;19.32;41.62
61710;BME280;47633;51.494;5.386;2023-02-22T11:31:27;101055.28;;;19.30;41.69
61710;BME280;47633;51.494;5.386;2023-02-22T11:33:55;101051.81;;;19.30;41.65
61710;BME280;47633;51.494;5.386;2023-02-22T11:36:31;101045.47;;;19.21;41.49
61710;BME280;47633;51.494;5.386;2023-02-22T11:38:57;101034.78;;;19.23;41.53
61710;BME280;47633;51.494;5.386;2023-02-22T11:41:34;101041.16;;;19.20;41.55
61710;BME280;47633;51.494;5.386;2023-02-22T11:44:27;101031.69;;;19.17;42.02
61710;BME280;47633;51.494;5.386;2023-02-22T11:46:54;101035.66;;;19.12;41.97
61710;BME280;47633;51.494;5.386;2023-02-22T11:49:23;101026.53;;;19.16;41.96
61710;BME280;47633;51.494;5.386;2023-02-22T11:57:33;101018.22;;;19.20;41.79
61710;BME280;47633;51.494;5.386;2023-02-22T12:08:50;100997.22;;;19.19;41.91
61710;BME280;47633;51.494;5.386;2023-02-22T12:11:26;100991.34;;;19.15;41.95
61710;BME280;47633;51.494;5.386;2023-02-22T12:22:00;100993.38;;;19.12;41.94
61710;BME280;47633;51.494;5.386;2023-02-22T12:24:37;100992.69;;;19.10;41.99
61710;BME280;47633;51.494;5.386;2023-02-22T12:27:21;100991.00;;;19.09;41.94
61710;BME280;47633;51.494;5.386;2023-02-22T12:29:59;100991.88;;;19.09;42.04
61710;BME280;47633;51.494;5.386;2023-02-22T12:35:33;100994.75;;;19.06;42.07
61710;BME280;47633;51.494;5.386;2023-02-22T12:40:43;100997.03;;;19.11;41.98
61710;BME280;47633;51.494;5.386;2023-02-22T12:43:35;100996.41;;;19.07;42.11
61710;BME280;47633;51.494;5.386;2023-02-22T12:46:08;100995.72;;;19.05;42.08
61710;BME280;47633;51.494;5.386;2023-02-22T12:56:53;100997.47;;;18.83;43.03
61710;BME280;47633;51.494;5.386;2023-02-22T12:59:32;101000.97;;;18.84;42.92
61710;BME280;47633;51.494;5.386;2023-02-22T13:02:12;101008.16;;;18.82;43.12
61710;BME280;47633;51.494;5.386;2023-02-22T13:04:40;101002.88;;;18.82;43.19
61710;BME280;47633;51.494;5.386;2023-02-22T13:07:26;101011.63;;;18.82;43.10
61710;BME280;47633;51.494;5.386;2023-02-22T13:22:03;101009.22;;;18.91;43.03
61710;BME280;47633;51.494;5.386;2023-02-22T13:24:34;101001.16;;;18.92;42.80
61710;BME280;47633;51.494;5.386;2023-02-22T13:27:19;100989.28;;;18.87;42.89
61710;BME280;47633;51.494;5.386;2023-02-22T13:29:48;100989.91;;;18.90;42.80
61710;BME280;47633;51.494;5.386;2023-02-22T13:32:22;100993.13;;;18.94;42.98
61710;BME280;47633;51.494;5.386;2023-02-22T13:40:42;100991.28;;;19.27;42.08
61710;BME280;47633;51.494;5.386;2023-02-22T13:46:29;100992.13;;;19.27;42.10
61710;BME280;47633;51.494;5.386;2023-02-22T13:51:42;100984.44;;;19.24;41.98
61710;BME280;47633;51.494;5.386;2023-02-22T13:54:27;100991.69;;;19.22;42.02
61710;BME280;47633;51.494;5.386;2023-02-22T13:56:54;100981.22;;;19.20;42.04
61710;BME280;47633;51.494;5.386;2023-02-22T13:59:32;100987.47;;;19.19;42.18
61710;BME280;47633;51.494;5.386;2023-02-22T14:01:59;100992.75;;;19.19;42.03
61710;BME280;47633;51.494;5.386;2023-02-22T14:12:31;101004.56;;;19.15;42.34
61710;BME280;47633;51.494;5.386;2023-02-22T14:17:38;101002.31;;;19.11;42.29
61710;BME280;47633;51.494;5.386;2023-02-22T14:22:41;101000.03;;;19.06;42.52
61710;BME280;47633;51.494;5.386;2023-02-22T14:27:58;100999.06;;;19.07;42.86
61710;BME280;47633;51.494;5.386;2023-02-22T14:30:26;100997.66;;;19.03;42.93
61710;BME280;47633;51.494;5.386;2023-02-22T14:32:52;100996.66;;;19.04;42.93
61710;BME280;47633;51.494;5.386;2023-02-22T14:35:19;100998.09;;;19.08;42.79
61710;BME280;47633;51.494;5.386;2023-02-22T14:37:55;100998.47;;;19.03;42.97
61710;BME280;47633;51.494;5.386;2023-02-22T14:40:30;101004.22;;;19.09;42.77
61710;BME280;47633;51.494;5.386;2023-02-22T14:43:15;101009.63;;;19.07;43.03
61710;BME280;47633;51.494;5.386;2023-02-22T14:45:55;101008.91;;;19.05;42.96
61710;BME280;47633;51.494;5.386;2023-02-22T14:48:26;101004.47;;;19.06;42.93
61710;BME280;47633;51.494;5.386;2023-02-22T14:50:59;100985.97;;;19.06;42.87
61710;BME280;47633;51.494;5.386;2023-02-22T14:53:45;101006.28;;;19.05;42.97
61710;BME280;47633;51.494;5.386;2023-02-22T14:56:20;101018.53;;;19.06;42.84
61710;BME280;47633;51.494;5.386;2023-02-22T14:59:12;101009.88;;;19.04;42.74
61710;BME280;47633;51.494;5.386;2023-02-22T15:01:39;101009.03;;;19.03;42.93
61710;BME280;47633;51.494;5.386;2023-02-22T15:04:19;101013.50;;;19.03;43.32
61710;BME280;47633;51.494;5.386;2023-02-22T15:06:46;101010.16;;;19.01;43.23
61710;BME280;47633;51.494;5.386;2023-02-22T15:09:15;101016.38;;;19.00;43.68
61710;BME280;47633;51.494;5.386;2023-02-22T15:14:29;101028.09;;;19.07;43.63
61710;BME280;47633;51.494;5.386;2023-02-22T15:16:58;101026.44;;;19.06;43.28